sensor_id;sensor_type;location;lat;lon;timestamp;P1;durP1;ratioP1;P2;durP2;ratioP2
15071;SDS011;7635;56.696;13.002;2023-07-31T00:01:21;1.23;;;1.13;;
15071;SDS011;7635;56.696;13.002;2023-07-31T00:03:47;1.77;;;1.33;;
15071;SDS011;7635;56.696;13.002;2023-07-31T00:06:15;1.75;;;1.52;;
15071;SDS011;7635;56.696;13.002;2023-07-31T00:08:41;2.35;;;1.30;;
15071;SDS011;7635;56.696;13.002;2023-07-31T00:11:09;1.30;;;1.20;;
15071;SDS011;7635;56.696;13.002;2023-07-31T00:13:36;1.40;;;1.30;;
15071;SDS011;7635;56.696;13.002;2023-07-31T00:16:03;1.35;;;1.25;;
15071;SDS011;7635;56.696;13.002;2023-07-31T00:18:30;1.40;;;1.30;;
15071;SDS011;7635;56.696;13.002;2023-07-31T00:20:56;2.63;;;1.20;;
15071;SDS011;7635;56.696;13.002;2023-07-31T00:23:23;1.40;;;1.30;;
15071;SDS011;7635;56.696;13.002;2023-07-31T00:25:50;2.83;;;1.10;;
15071;SDS011;7635;56.696;13.002;2023-07-31T00:28:18;1.85;;;1.30;;
15071;SDS011;7635;56.696;13.002;2023-07-31T00:30:44;2.00;;;1.30;;
15071;SDS011;7635;56.696;13.002;2023-07-31T00:33:11;1.30;;;1.20;;
15071;SDS011;7635;56.696;13.002;2023-07-31T00:35:38;1.27;;;1.17;;
15071;SDS011;7635;56.696;13.002;2023-07-31T00:38:04;2.40;;;1.45;;
15071;SDS011;7635;56.696;13.002;2023-07-31T00:40:34;8.50;;;1.40;;
15071;SDS011;7635;56.696;13.002;2023-07-31T00:43:01;3.45;;;1.40;;
15071;SDS011;7635;56.696;13.002;2023-07-31T00:45:30;1.38;;;1.20;;
15071;SDS011;7635;56.696;13.002;2023-07-31T00:47:58;1.17;;;1.10;;
15071;SDS011;7635;56.696;13.002;2023-07-31T00:50:25;1.25;;;1.15;;
15071;SDS011;7635;56.696;13.002;2023-07-31T00:52:52;3.25;;;1.10;;
15071;SDS011;7635;56.696;13.002;2023-07-31T00:55:19;3.88;;;1.40;;
15071;SDS011;7635;56.696;13.002;2023-07-31T00:57:48;1.30;;;1.20;;
15071;SDS011;7635;56.696;13.002;2023-07-31T01:00:16;1.95;;;1.30;;
15071;SDS011;7635;56.696;13.002;2023-07-31T01:02:44;1.40;;;1.08;;
15071;SDS011;7635;56.696;13.002;2023-07-31T01:05:11;2.80;;;1.30;;
15071;SDS011;7635;56.696;13.002;2023-07-31T01:07:40;1.20;;;1.10;;
15071;SDS011;7635;56.696;13.002;2023-07-31T01:10:19;1.70;;;1.40;;
15071;SDS011;7635;56.696;13.002;2023-07-31T01:12:49;1.38;;;1.27;;
15071;SDS011;7635;56.696;13.002;2023-07-31T01:15:17;1.40;;;1.30;;
15071;SDS011;7635;56.696;13.002;2023-07-31T01:17:45;1.58;;;1.38;;
15071;SDS011;7635;56.696;13.002;2023-07-31T01:20:12;1.48;;;1.38;;
15071;SDS011;7635;56.696;13.002;2023-07-31T01:22:49;1.38;;;1.27;;
15071;SDS011;7635;56.696;13.002;2023-07-31T01:28:13;1.52;;;1.42;;
15071;SDS011;7635;56.696;13.002;2023-07-31T01:30:44;2.47;;;1.38;;
15071;SDS011;7635;56.696;13.002;2023-07-31T01:33:14;1.23;;;1.13;;
15071;SDS011;7635;56.696;13.002;2023-07-31T01:35:42;2.13;;;1.27;;
15071;SDS011;7635;56.696;13.002;2023-07-31T01:38:10;1.40;;;1.20;;
15071;SDS011;7635;56.696;13.002;2023-07-31T01:40:37;2.05;;;1.45;;
15071;SDS011;7635;56.696;13.002;2023-07-31T01:43:05;1.38;;;1.25;;
15071;SDS011;7635;56.696;13.002;2023-07-31T01:45:31;1.55;;;1.40;;
15071;SDS011;7635;56.696;13.002;2023-07-31T01:47:58;1.77;;;1.42;;
15071;SDS011;7635;56.696;13.002;2023-07-31T01:50:25;1.30;;;1.20;;
15071;SDS011;7635;56.696;13.002;2023-07-31T01:52:51;2.53;;;1.42;;
15071;SDS011;7635;56.696;13.002;2023-07-31T01:55:18;1.25;;;1.15;;
15071;SDS011;7635;56.696;13.002;2023-07-31T01:57:44;3.88;;;1.55;;
15071;SDS011;7635;56.696;13.002;2023-07-31T02:00:13;1.02;;;1.00;;
15071;SDS011;7635;56.696;13.002;2023-07-31T02:02:39;2.25;;;1.40;;
15071;SDS011;7635;56.696;13.002;2023-07-31T02:05:06;1.65;;;1.17;;
15071;SDS011;7635;56.696;13.002;2023-07-31T02:07:33;1.55;;;1.38;;
15071;SDS011;7635;56.696;13.002;2023-07-31T02:10:00;4.43;;;1.60;;
15071;SDS011;7635;56.696;13.002;2023-07-31T02:12:27;1.10;;;1.10;;
15071;SDS011;7635;56.696;13.002;2023-07-31T02:14:55;1.45;;;1.30;;
15071;SDS011;7635;56.696;13.002;2023-07-31T02:17:23;1.25;;;1.15;;
15071;SDS011;7635;56.696;13.002;2023-07-31T02:19:50;1.25;;;1.15;;
15071;SDS011;7635;56.696;13.002;2023-07-31T02:22:16;1.38;;;1.27;;
15071;SDS011;7635;56.696;13.002;2023-07-31T02:24:43;2.28;;;1.27;;
15071;SDS011;7635;56.696;13.002;2023-07-31T02:27:09;4.63;;;1.58;;
15071;SDS011;7635;56.696;13.002;2023-07-31T02:29:36;1.48;;;1.38;;
15071;SDS011;7635;56.696;13.002;2023-07-31T02:32:03;1.58;;;1.13;;
15071;SDS011;7635;56.696;13.002;2023-07-31T02:34:31;1.17;;;1.10;;
15071;SDS011;7635;56.696;13.002;2023-07-31T02:36:58;1.27;;;1.17;;
15071;SDS011;7635;56.696;13.002;2023-07-31T02:39:25;1.25;;;1.25;;
15071;SDS011;7635;56.696;13.002;2023-07-31T02:41:51;1.98;;;1.30;;
15071;SDS011;7635;56.696;13.002;2023-07-31T02:44:18;1.70;;;1.50;;
15071;SDS011;7635;56.696;13.002;2023-07-31T02:46:46;2.38;;;1.33;;
15071;SDS011;7635;56.696;13.002;2023-07-31T02:49:12;1.42;;;1.33;;
15071;SDS011;7635;56.696;13.002;2023-07-31T02:51:40;1.40;;;1.30;;
15071;SDS011;7635;56.696;13.002;2023-07-31T02:54:07;1.85;;;1.25;;
15071;SDS011;7635;56.696;13.002;2023-07-31T02:56:34;1.27;;;1.17;;
15071;SDS011;7635;56.696;13.002;2023-07-31T02:59:00;1.40;;;1.27;;
15071;SDS011;7635;56.696;13.002;2023-07-31T03:01:27;3.40;;;1.15;;
15071;SDS011;7635;56.696;13.002;2023-07-31T03:03:54;1.60;;;1.50;;
15071;SDS011;7635;56.696;13.002;2023-07-31T03:06:20;3.17;;;1.67;;
15071;SDS011;7635;56.696;13.002;2023-07-31T03:08:48;1.80;;;1.20;;
15071;SDS011;7635;56.696;13.002;2023-07-31T03:11:15;1.83;;;1.40;;
15071;SDS011;7635;56.696;13.002;2023-07-31T03:13:42;1.48;;;1.38;;
15071;SDS011;7635;56.696;13.002;2023-07-31T03:16:08;1.33;;;1.23;;
15071;SDS011;7635;56.696;13.002;2023-07-31T03:18:35;1.75;;;1.55;;
15071;SDS011;7635;56.696;13.002;2023-07-31T03:21:02;2.53;;;1.30;;
15071;SDS011;7635;56.696;13.002;2023-07-31T03:23:28;2.25;;;1.38;;
15071;SDS011;7635;56.696;13.002;2023-07-31T03:25:57;3.45;;;1.50;;
15071;SDS011;7635;56.696;13.002;2023-07-31T03:28:25;4.38;;;1.30;;
15071;SDS011;7635;56.696;13.002;2023-07-31T03:30:52;1.25;;;1.15;;
15071;SDS011;7635;56.696;13.002;2023-07-31T03:33:18;1.52;;;1.42;;
15071;SDS011;7635;56.696;13.002;2023-07-31T03:35:45;1.50;;;1.40;;
15071;SDS011;7635;56.696;13.002;2023-07-31T03:38:12;2.15;;;1.60;;
15071;SDS011;7635;56.696;13.002;2023-07-31T03:40:39;1.52;;;1.42;;
15071;SDS011;7635;56.696;13.002;2023-07-31T03:43:07;3.05;;;1.48;;
15071;SDS011;7635;56.696;13.002;2023-07-31T03:45:34;2.40;;;1.60;;
15071;SDS011;7635;56.696;13.002;2023-07-31T03:48:00;4.32;;;1.35;;
15071;SDS011;7635;56.696;13.002;2023-07-31T03:50:27;2.78;;;1.52;;
15071;SDS011;7635;56.696;13.002;2023-07-31T03:52:54;1.10;;;1.05;;
15071;SDS011;7635;56.696;13.002;2023-07-31T03:55:20;1.10;;;1.10;;
15071;SDS011;7635;56.696;13.002;2023-07-31T03:57:47;1.73;;;1.38;;
15071;SDS011;7635;56.696;13.002;2023-07-31T04:00:15;2.20;;;1.50;;
15071;SDS011;7635;56.696;13.002;2023-07-31T04:02:42;1.58;;;1.48;;
15071;SDS011;7635;56.696;13.002;2023-07-31T04:05:09;1.30;;;1.02;;
15071;SDS011;7635;56.696;13.002;2023-07-31T04:07:36;3.53;;;1.52;;
15071;SDS011;7635;56.696;13.002;2023-07-31T04:10:03;2.50;;;1.23;;
15071;SDS011;7635;56.696;13.002;2023-07-31T04:12:30;1.50;;;1.23;;
15071;SDS011;7635;56.696;13.002;2023-07-31T04:14:57;1.90;;;1.40;;
15071;SDS011;7635;56.696;13.002;2023-07-31T04:17:25;1.40;;;1.27;;
15071;SDS011;7635;56.696;13.002;2023-07-31T04:19:52;3.90;;;1.48;;
15071;SDS011;7635;56.696;13.002;2023-07-31T04:22:18;1.98;;;1.38;;
15071;SDS011;7635;56.696;13.002;2023-07-31T04:24:45;3.38;;;1.60;;
15071;SDS011;7635;56.696;13.002;2023-07-31T04:27:12;3.20;;;1.90;;
15071;SDS011;7635;56.696;13.002;2023-07-31T04:29:39;1.90;;;1.20;;
15071;SDS011;7635;56.696;13.002;2023-07-31T04:32:07;1.10;;;1.10;;
15071;SDS011;7635;56.696;13.002;2023-07-31T04:34:35;1.75;;;1.10;;
15071;SDS011;7635;56.696;13.002;2023-07-31T04:37:02;2.97;;;1.05;;
15071;SDS011;7635;56.696;13.002;2023-07-31T04:39:29;2.13;;;1.40;;
15071;SDS011;7635;56.696;13.002;2023-07-31T04:41:56;1.60;;;1.25;;
15071;SDS011;7635;56.696;13.002;2023-07-31T04:44:22;1.67;;;1.52;;
15071;SDS011;7635;56.696;13.002;2023-07-31T04:46:49;3.53;;;0.85;;
15071;SDS011;7635;56.696;13.002;2023-07-31T04:49:16;2.40;;;0.90;;
15071;SDS011;7635;56.696;13.002;2023-07-31T04:51:44;5.68;;;1.35;;
15071;SDS011;7635;56.696;13.002;2023-07-31T04:54:11;1.42;;;1.10;;
15071;SDS011;7635;56.696;13.002;2023-07-31T04:56:39;1.60;;;1.33;;
15071;SDS011;7635;56.696;13.002;2023-07-31T04:59:06;0.98;;;0.98;;
15071;SDS011;7635;56.696;13.002;2023-07-31T05:01:33;1.67;;;1.17;;
15071;SDS011;7635;56.696;13.002;2023-07-31T05:04:00;1.40;;;0.98;;
15071;SDS011;7635;56.696;13.002;2023-07-31T05:06:26;1.38;;;1.27;;
15071;SDS011;7635;56.696;13.002;2023-07-31T05:08:54;2.63;;;1.23;;
15071;SDS011;7635;56.696;13.002;2023-07-31T05:11:21;0.88;;;0.88;;
15071;SDS011;7635;56.696;13.002;2023-07-31T05:13:48;0.90;;;0.90;;
15071;SDS011;7635;56.696;13.002;2023-07-31T05:16:14;0.90;;;0.90;;
15071;SDS011;7635;56.696;13.002;2023-07-31T05:18:41;2.53;;;1.10;;
15071;SDS011;7635;56.696;13.002;2023-07-31T05:21:08;1.00;;;1.00;;
15071;SDS011;7635;56.696;13.002;2023-07-31T05:23:34;1.30;;;1.20;;
15071;SDS011;7635;56.696;13.002;2023-07-31T05:26:05;2.15;;;0.98;;
15071;SDS011;7635;56.696;13.002;2023-07-31T05:28:34;1.00;;;1.00;;
15071;SDS011;7635;56.696;13.002;2023-07-31T05:31:02;1.08;;;0.98;;
15071;SDS011;7635;56.696;13.002;2023-07-31T05:33:29;0.98;;;0.98;;
15071;SDS011;7635;56.696;13.002;2023-07-31T05:35:56;0.90;;;0.90;;
15071;SDS011;7635;56.696;13.002;2023-07-31T05:38:23;2.35;;;1.40;;
15071;SDS011;7635;56.696;13.002;2023-07-31T05:40:50;1.30;;;1.20;;
15071;SDS011;7635;56.696;13.002;2023-07-31T05:43:18;2.08;;;1.02;;
15071;SDS011;7635;56.696;13.002;2023-07-31T05:45:44;4.32;;;1.27;;
15071;SDS011;7635;56.696;13.002;2023-07-31T05:48:11;1.52;;;1.17;;
15071;SDS011;7635;56.696;13.002;2023-07-31T05:50:38;1.52;;;1.30;;
15071;SDS011;7635;56.696;13.002;2023-07-31T05:53:05;2.95;;;1.40;;
15071;SDS011;7635;56.696;13.002;2023-07-31T05:55:33;1.40;;;1.25;;
15071;SDS011;7635;56.696;13.002;2023-07-31T05:57:59;2.03;;;1.60;;
15071;SDS011;7635;56.696;13.002;2023-07-31T06:00:27;4.85;;;1.88;;
15071;SDS011;7635;56.696;13.002;2023-07-31T06:02:54;1.67;;;1.58;;
15071;SDS011;7635;56.696;13.002;2023-07-31T06:05:21;1.75;;;1.25;;
15071;SDS011;7635;56.696;13.002;2023-07-31T06:07:48;1.55;;;1.42;;
15071;SDS011;7635;56.696;13.002;2023-07-31T06:10:14;3.00;;;1.58;;
15071;SDS011;7635;56.696;13.002;2023-07-31T06:12:41;2.58;;;1.58;;
15071;SDS011;7635;56.696;13.002;2023-07-31T06:15:08;3.22;;;2.15;;
15071;SDS011;7635;56.696;13.002;2023-07-31T06:17:37;3.50;;;1.90;;
15071;SDS011;7635;56.696;13.002;2023-07-31T06:20:05;3.28;;;1.60;;
15071;SDS011;7635;56.696;13.002;2023-07-31T06:22:33;2.38;;;1.90;;
15071;SDS011;7635;56.696;13.002;2023-07-31T06:24:59;4.90;;;1.92;;
15071;SDS011;7635;56.696;13.002;2023-07-31T06:27:26;2.65;;;1.60;;
15071;SDS011;7635;56.696;13.002;2023-07-31T06:29:53;4.03;;;1.65;;
15071;SDS011;7635;56.696;13.002;2023-07-31T06:32:20;2.80;;;1.65;;
15071;SDS011;7635;56.696;13.002;2023-07-31T06:34:48;3.67;;;1.55;;
15071;SDS011;7635;56.696;13.002;2023-07-31T06:37:14;3.20;;;2.08;;
15071;SDS011;7635;56.696;13.002;2023-07-31T06:39:41;2.53;;;1.50;;
15071;SDS011;7635;56.696;13.002;2023-07-31T06:42:08;3.95;;;1.80;;
15071;SDS011;7635;56.696;13.002;2023-07-31T06:44:35;1.52;;;1.42;;
15071;SDS011;7635;56.696;13.002;2023-07-31T06:47:02;2.13;;;1.58;;
15071;SDS011;7635;56.696;13.002;2023-07-31T06:49:28;3.33;;;1.70;;
15071;SDS011;7635;56.696;13.002;2023-07-31T06:51:56;5.38;;;1.80;;
15071;SDS011;7635;56.696;13.002;2023-07-31T06:54:23;4.85;;;2.03;;
15071;SDS011;7635;56.696;13.002;2023-07-31T06:56:50;2.45;;;1.70;;
15071;SDS011;7635;56.696;13.002;2023-07-31T06:59:16;1.63;;;1.50;;
15071;SDS011;7635;56.696;13.002;2023-07-31T07:01:43;4.13;;;1.60;;
15071;SDS011;7635;56.696;13.002;2023-07-31T07:04:10;3.22;;;1.65;;
15071;SDS011;7635;56.696;13.002;2023-07-31T07:06:36;2.47;;;1.45;;
15071;SDS011;7635;56.696;13.002;2023-07-31T07:09:04;1.30;;;1.20;;
15071;SDS011;7635;56.696;13.002;2023-07-31T07:11:31;1.77;;;1.58;;
15071;SDS011;7635;56.696;13.002;2023-07-31T07:13:58;1.55;;;1.30;;
15071;SDS011;7635;56.696;13.002;2023-07-31T07:16:25;3.03;;;1.48;;
15071;SDS011;7635;56.696;13.002;2023-07-31T07:18:55;2.28;;;1.30;;
15071;SDS011;7635;56.696;13.002;2023-07-31T07:21:20;4.18;;;1.42;;
15071;SDS011;7635;56.696;13.002;2023-07-31T07:23:47;2.75;;;1.40;;
15071;SDS011;7635;56.696;13.002;2023-07-31T07:26:15;1.70;;;1.60;;
15071;SDS011;7635;56.696;13.002;2023-07-31T07:28:42;1.40;;;1.30;;
15071;SDS011;7635;56.696;13.002;2023-07-31T07:31:09;3.80;;;1.80;;
15071;SDS011;7635;56.696;13.002;2023-07-31T07:33:36;2.25;;;1.50;;
15071;SDS011;7635;56.696;13.002;2023-07-31T07:36:03;2.28;;;1.80;;
15071;SDS011;7635;56.696;13.002;2023-07-31T07:38:30;4.47;;;1.73;;
15071;SDS011;7635;56.696;13.002;2023-07-31T07:40:57;1.35;;;1.25;;
15071;SDS011;7635;56.696;13.002;2023-07-31T07:43:25;2.88;;;1.50;;
15071;SDS011;7635;56.696;13.002;2023-07-31T07:45:52;2.30;;;1.42;;
15071;SDS011;7635;56.696;13.002;2023-07-31T07:48:19;3.25;;;1.35;;
15071;SDS011;7635;56.696;13.002;2023-07-31T07:50:46;2.88;;;1.38;;
15071;SDS011;7635;56.696;13.002;2023-07-31T07:53:13;1.75;;;1.60;;
15071;SDS011;7635;56.696;13.002;2023-07-31T07:55:39;1.70;;;1.40;;
15071;SDS011;7635;56.696;13.002;2023-07-31T07:58:07;3.97;;;1.48;;
15071;SDS011;7635;56.696;13.002;2023-07-31T08:00:35;2.35;;;1.50;;
15071;SDS011;7635;56.696;13.002;2023-07-31T08:03:02;1.52;;;1.40;;
15071;SDS011;7635;56.696;13.002;2023-07-31T08:05:29;2.05;;;1.33;;
15071;SDS011;7635;56.696;13.002;2023-07-31T08:07:59;1.13;;;1.13;;
15071;SDS011;7635;56.696;13.002;2023-07-31T08:10:25;1.75;;;1.40;;
15071;SDS011;7635;56.696;13.002;2023-07-31T08:12:52;1.95;;;1.40;;
15071;SDS011;7635;56.696;13.002;2023-07-31T08:15:19;4.43;;;1.50;;
15071;SDS011;7635;56.696;13.002;2023-07-31T08:17:47;1.60;;;1.50;;
15071;SDS011;7635;56.696;13.002;2023-07-31T08:20:13;0.98;;;0.95;;
15071;SDS011;7635;56.696;13.002;2023-07-31T08:22:40;1.23;;;0.88;;
15071;SDS011;7635;56.696;13.002;2023-07-31T08:25:07;1.35;;;1.13;;
15071;SDS011;7635;56.696;13.002;2023-07-31T08:27:34;1.30;;;1.17;;
15071;SDS011;7635;56.696;13.002;2023-07-31T08:30:01;3.10;;;1.30;;
15071;SDS011;7635;56.696;13.002;2023-07-31T08:32:27;1.40;;;1.30;;
15071;SDS011;7635;56.696;13.002;2023-07-31T08:34:55;6.50;;;1.30;;
15071;SDS011;7635;56.696;13.002;2023-07-31T08:37:22;3.20;;;1.20;;
15071;SDS011;7635;56.696;13.002;2023-07-31T08:39:49;1.30;;;0.88;;
15071;SDS011;7635;56.696;13.002;2023-07-31T08:42:16;1.02;;;0.90;;
15071;SDS011;7635;56.696;13.002;2023-07-31T08:44:43;5.63;;;1.23;;
15071;SDS011;7635;56.696;13.002;2023-07-31T08:47:10;1.40;;;1.00;;
15071;SDS011;7635;56.696;13.002;2023-07-31T08:49:37;0.90;;;0.90;;
15071;SDS011;7635;56.696;13.002;2023-07-31T08:52:07;1.33;;;1.08;;
15071;SDS011;7635;56.696;13.002;2023-07-31T08:54:34;1.63;;;0.80;;
15071;SDS011;7635;56.696;13.002;2023-07-31T08:57:00;1.02;;;0.68;;
15071;SDS011;7635;56.696;13.002;2023-07-31T08:59:28;2.10;;;0.82;;
15071;SDS011;7635;56.696;13.002;2023-07-31T09:01:57;2.05;;;1.08;;
15071;SDS011;7635;56.696;13.002;2023-07-31T09:04:29;1.65;;;0.70;;
15071;SDS011;7635;56.696;13.002;2023-07-31T09:06:59;1.50;;;1.17;;
15071;SDS011;7635;56.696;13.002;2023-07-31T09:09:29;4.53;;;0.90;;
15071;SDS011;7635;56.696;13.002;2023-07-31T09:11:56;3.00;;;0.80;;
15071;SDS011;7635;56.696;13.002;2023-07-31T09:14:24;2.25;;;0.82;;
15071;SDS011;7635;56.696;13.002;2023-07-31T09:16:52;3.90;;;1.00;;
15071;SDS011;7635;56.696;13.002;2023-07-31T09:19:26;0.57;;;0.57;;
15071;SDS011;7635;56.696;13.002;2023-07-31T09:21:53;1.40;;;0.63;;
15071;SDS011;7635;56.696;13.002;2023-07-31T09:24:26;3.40;;;1.02;;
15071;SDS011;7635;56.696;13.002;2023-07-31T09:26:56;1.75;;;0.88;;
15071;SDS011;7635;56.696;13.002;2023-07-31T09:29:24;1.23;;;0.73;;
15071;SDS011;7635;56.696;13.002;2023-07-31T09:31:52;0.55;;;0.55;;
15071;SDS011;7635;56.696;13.002;2023-07-31T09:34:19;0.57;;;0.55;;
15071;SDS011;7635;56.696;13.002;2023-07-31T09:36:47;0.60;;;0.60;;
15071;SDS011;7635;56.696;13.002;2023-07-31T09:39:15;3.22;;;0.80;;
15071;SDS011;7635;56.696;13.002;2023-07-31T09:41:43;0.80;;;0.80;;
15071;SDS011;7635;56.696;13.002;2023-07-31T09:44:15;0.68;;;0.68;;
15071;SDS011;7635;56.696;13.002;2023-07-31T09:46:42;1.13;;;0.95;;
15071;SDS011;7635;56.696;13.002;2023-07-31T09:49:09;0.20;;;0.20;;
15071;SDS011;7635;56.696;13.002;2023-07-31T09:51:36;1.48;;;0.82;;
15071;SDS011;7635;56.696;13.002;2023-07-31T09:54:08;2.70;;;1.00;;
15071;SDS011;7635;56.696;13.002;2023-07-31T09:56:36;0.70;;;0.70;;
15071;SDS011;7635;56.696;13.002;2023-07-31T09:59:07;2.08;;;0.93;;
15071;SDS011;7635;56.696;13.002;2023-07-31T10:01:37;2.10;;;0.80;;
15071;SDS011;7635;56.696;13.002;2023-07-31T10:04:05;0.82;;;0.82;;
15071;SDS011;7635;56.696;13.002;2023-07-31T10:06:33;0.70;;;0.70;;
15071;SDS011;7635;56.696;13.002;2023-07-31T10:09:01;0.65;;;0.65;;
15071;SDS011;7635;56.696;13.002;2023-07-31T10:11:29;1.65;;;1.02;;
15071;SDS011;7635;56.696;13.002;2023-07-31T10:14:00;0.90;;;0.90;;
15071;SDS011;7635;56.696;13.002;2023-07-31T10:16:28;1.05;;;0.80;;
15071;SDS011;7635;56.696;13.002;2023-07-31T10:18:57;0.70;;;0.70;;
15071;SDS011;7635;56.696;13.002;2023-07-31T10:21:24;1.00;;;0.88;;
15071;SDS011;7635;56.696;13.002;2023-07-31T10:23:51;0.45;;;0.45;;
15071;SDS011;7635;56.696;13.002;2023-07-31T10:26:18;0.60;;;0.60;;
15071;SDS011;7635;56.696;13.002;2023-07-31T10:28:46;0.50;;;0.50;;
15071;SDS011;7635;56.696;13.002;2023-07-31T10:31:14;4.50;;;0.80;;
15071;SDS011;7635;56.696;13.002;2023-07-31T10:33:41;1.10;;;1.00;;
15071;SDS011;7635;56.696;13.002;2023-07-31T10:36:15;0.45;;;0.45;;
15071;SDS011;7635;56.696;13.002;2023-07-31T10:38:44;0.60;;;0.60;;
15071;SDS011;7635;56.696;13.002;2023-07-31T10:41:10;0.60;;;0.60;;
15071;SDS011;7635;56.696;13.002;2023-07-31T10:43:37;0.50;;;0.50;;
15071;SDS011;7635;56.696;13.002;2023-07-31T10:46:07;0.30;;;0.30;;
15071;SDS011;7635;56.696;13.002;2023-07-31T10:48:35;1.00;;;0.90;;
15071;SDS011;7635;56.696;13.002;2023-07-31T10:51:06;1.88;;;0.80;;
15071;SDS011;7635;56.696;13.002;2023-07-31T10:53:36;2.28;;;1.10;;
15071;SDS011;7635;56.696;13.002;2023-07-31T10:56:03;0.45;;;0.45;;
15071;SDS011;7635;56.696;13.002;2023-07-31T10:58:30;1.00;;;1.00;;
15071;SDS011;7635;56.696;13.002;2023-07-31T11:00:58;0.82;;;0.82;;
15071;SDS011;7635;56.696;13.002;2023-07-31T11:03:26;1.17;;;0.80;;
15071;SDS011;7635;56.696;13.002;2023-07-31T11:06:06;0.52;;;0.52;;
15071;SDS011;7635;56.696;13.002;2023-07-31T11:08:34;1.17;;;0.98;;
15071;SDS011;7635;56.696;13.002;2023-07-31T11:11:08;1.08;;;0.70;;
15071;SDS011;7635;56.696;13.002;2023-07-31T11:13:40;1.70;;;0.85;;
15071;SDS011;7635;56.696;13.002;2023-07-31T11:16:08;1.60;;;0.75;;
15071;SDS011;7635;56.696;13.002;2023-07-31T11:18:35;0.50;;;0.50;;
15071;SDS011;7635;56.696;13.002;2023-07-31T11:21:04;0.95;;;0.95;;
15071;SDS011;7635;56.696;13.002;2023-07-31T11:23:30;3.50;;;0.90;;
15071;SDS011;7635;56.696;13.002;2023-07-31T11:26:00;2.47;;;1.10;;
15071;SDS011;7635;56.696;13.002;2023-07-31T11:28:30;0.88;;;0.75;;
15071;SDS011;7635;56.696;13.002;2023-07-31T11:30:58;1.13;;;0.68;;
15071;SDS011;7635;56.696;13.002;2023-07-31T11:33:25;2.00;;;0.88;;
15071;SDS011;7635;56.696;13.002;2023-07-31T11:35:52;0.80;;;0.80;;
15071;SDS011;7635;56.696;13.002;2023-07-31T11:38:22;5.63;;;1.23;;
15071;SDS011;7635;56.696;13.002;2023-07-31T11:40:50;0.68;;;0.68;;
15071;SDS011;7635;56.696;13.002;2023-07-31T11:43:19;1.38;;;0.73;;
15071;SDS011;7635;56.696;13.002;2023-07-31T11:45:47;1.33;;;0.88;;
15071;SDS011;7635;56.696;13.002;2023-07-31T11:48:20;0.70;;;0.70;;
15071;SDS011;7635;56.696;13.002;2023-07-31T11:50:48;1.60;;;0.80;;
15071;SDS011;7635;56.696;13.002;2023-07-31T11:53:17;0.77;;;0.77;;
15071;SDS011;7635;56.696;13.002;2023-07-31T11:55:46;0.80;;;0.80;;
15071;SDS011;7635;56.696;13.002;2023-07-31T11:58:14;0.75;;;0.75;;
15071;SDS011;7635;56.696;13.002;2023-07-31T12:00:43;0.52;;;0.52;;
15071;SDS011;7635;56.696;13.002;2023-07-31T12:03:10;0.75;;;0.75;;
15071;SDS011;7635;56.696;13.002;2023-07-31T12:05:37;0.95;;;0.95;;
15071;SDS011;7635;56.696;13.002;2023-07-31T12:08:08;1.52;;;0.90;;
15071;SDS011;7635;56.696;13.002;2023-07-31T12:10:36;2.45;;;1.05;;
15071;SDS011;7635;56.696;13.002;2023-07-31T12:13:04;4.40;;;1.08;;
15071;SDS011;7635;56.696;13.002;2023-07-31T12:15:32;1.73;;;1.10;;
15071;SDS011;7635;56.696;13.002;2023-07-31T12:18:01;3.97;;;1.00;;
15071;SDS011;7635;56.696;13.002;2023-07-31T12:20:30;1.38;;;1.10;;
15071;SDS011;7635;56.696;13.002;2023-07-31T12:22:58;2.40;;;1.10;;
15071;SDS011;7635;56.696;13.002;2023-07-31T12:25:28;3.35;;;1.00;;
15071;SDS011;7635;56.696;13.002;2023-07-31T12:28:03;1.15;;;0.80;;
15071;SDS011;7635;56.696;13.002;2023-07-31T12:30:32;1.63;;;1.20;;
15071;SDS011;7635;56.696;13.002;2023-07-31T12:33:04;1.20;;;1.00;;
15071;SDS011;7635;56.696;13.002;2023-07-31T12:35:34;1.73;;;1.35;;
15071;SDS011;7635;56.696;13.002;2023-07-31T12:38:02;1.00;;;1.00;;
15071;SDS011;7635;56.696;13.002;2023-07-31T12:40:28;1.27;;;0.98;;
15071;SDS011;7635;56.696;13.002;2023-07-31T12:42:55;0.90;;;0.90;;
15071;SDS011;7635;56.696;13.002;2023-07-31T12:45:22;4.15;;;1.20;;
15071;SDS011;7635;56.696;13.002;2023-07-31T12:47:49;1.35;;;1.27;;
15071;SDS011;7635;56.696;13.002;2023-07-31T12:50:17;2.05;;;1.00;;
15071;SDS011;7635;56.696;13.002;2023-07-31T12:52:43;1.35;;;1.10;;
15071;SDS011;7635;56.696;13.002;2023-07-31T12:55:10;2.03;;;1.20;;
15071;SDS011;7635;56.696;13.002;2023-07-31T12:57:37;1.05;;;1.05;;
15071;SDS011;7635;56.696;13.002;2023-07-31T13:00:04;1.25;;;1.20;;
15071;SDS011;7635;56.696;13.002;2023-07-31T13:02:31;2.13;;;1.30;;
15071;SDS011;7635;56.696;13.002;2023-07-31T13:04:58;1.67;;;1.17;;
15071;SDS011;7635;56.696;13.002;2023-07-31T13:07:26;1.20;;;1.13;;
15071;SDS011;7635;56.696;13.002;2023-07-31T13:09:53;1.15;;;1.05;;
15071;SDS011;7635;56.696;13.002;2023-07-31T13:12:20;0.98;;;0.98;;
15071;SDS011;7635;56.696;13.002;2023-07-31T13:14:46;2.15;;;1.30;;
15071;SDS011;7635;56.696;13.002;2023-07-31T13:17:13;1.50;;;1.40;;
15071;SDS011;7635;56.696;13.002;2023-07-31T13:19:40;0.73;;;0.73;;
15071;SDS011;7635;56.696;13.002;2023-07-31T13:22:07;0.98;;;0.98;;
15071;SDS011;7635;56.696;13.002;2023-07-31T13:24:35;4.43;;;1.00;;
15071;SDS011;7635;56.696;13.002;2023-07-31T13:27:02;1.15;;;1.13;;
15071;SDS011;7635;56.696;13.002;2023-07-31T13:29:30;1.27;;;1.20;;
15071;SDS011;7635;56.696;13.002;2023-07-31T13:31:57;3.15;;;1.40;;
15071;SDS011;7635;56.696;13.002;2023-07-31T13:34:24;1.63;;;1.13;;
15071;SDS011;7635;56.696;13.002;2023-07-31T13:36:50;1.35;;;1.13;;
15071;SDS011;7635;56.696;13.002;2023-07-31T13:39:17;2.05;;;1.38;;
15071;SDS011;7635;56.696;13.002;2023-07-31T13:41:45;2.17;;;1.42;;
15071;SDS011;7635;56.696;13.002;2023-07-31T13:44:12;1.27;;;1.17;;
15071;SDS011;7635;56.696;13.002;2023-07-31T13:46:38;2.40;;;1.10;;
15071;SDS011;7635;56.696;13.002;2023-07-31T13:49:05;1.00;;;1.00;;
15071;SDS011;7635;56.696;13.002;2023-07-31T13:51:32;1.98;;;1.25;;
15071;SDS011;7635;56.696;13.002;2023-07-31T13:53:58;2.55;;;1.15;;
15071;SDS011;7635;56.696;13.002;2023-07-31T13:56:25;1.10;;;1.10;;
15071;SDS011;7635;56.696;13.002;2023-07-31T13:58:53;4.35;;;1.48;;
15071;SDS011;7635;56.696;13.002;2023-07-31T14:01:20;3.72;;;1.27;;
15071;SDS011;7635;56.696;13.002;2023-07-31T14:03:46;2.92;;;1.70;;
15071;SDS011;7635;56.696;13.002;2023-07-31T14:06:13;3.42;;;1.30;;
15071;SDS011;7635;56.696;13.002;2023-07-31T14:08:40;1.23;;;1.15;;
15071;SDS011;7635;56.696;13.002;2023-07-31T14:11:06;2.03;;;1.52;;
15071;SDS011;7635;56.696;13.002;2023-07-31T14:13:33;2.75;;;1.30;;
15071;SDS011;7635;56.696;13.002;2023-07-31T14:16:01;1.55;;;1.45;;
15071;SDS011;7635;56.696;13.002;2023-07-31T14:18:28;1.88;;;1.10;;
15071;SDS011;7635;56.696;13.002;2023-07-31T14:20:55;1.85;;;1.25;;
15071;SDS011;7635;56.696;13.002;2023-07-31T14:23:21;1.30;;;1.20;;
15071;SDS011;7635;56.696;13.002;2023-07-31T14:25:48;1.10;;;1.00;;
15071;SDS011;7635;56.696;13.002;2023-07-31T14:28:15;1.35;;;1.30;;
15071;SDS011;7635;56.696;13.002;2023-07-31T14:30:42;0.90;;;0.90;;
15071;SDS011;7635;56.696;13.002;2023-07-31T14:33:10;1.35;;;1.23;;
15071;SDS011;7635;56.696;13.002;2023-07-31T14:35:37;1.90;;;1.27;;
15071;SDS011;7635;56.696;13.002;2023-07-31T14:38:03;1.00;;;1.00;;
15071;SDS011;7635;56.696;13.002;2023-07-31T14:40:30;1.00;;;0.90;;
15071;SDS011;7635;56.696;13.002;2023-07-31T14:42:57;1.30;;;1.20;;
15071;SDS011;7635;56.696;13.002;2023-07-31T14:45:24;1.25;;;1.15;;
15071;SDS011;7635;56.696;13.002;2023-07-31T14:47:51;1.60;;;1.25;;
15071;SDS011;7635;56.696;13.002;2023-07-31T14:50:19;3.35;;;1.35;;
15071;SDS011;7635;56.696;13.002;2023-07-31T14:52:46;0.98;;;0.98;;